x

Nantucket 54nm Southeast Of Nantucket (44008) Wave Buoy

12:50am - Sat 13th Feb 2016 All times are EST. -5 hours from GMT.

  • Sig Wave height 3.6ft
  • Swell Direction
  • Peak Period 7s
  • Average Period 6s
  • Wind
    13mph, 18mph gusts
  • Sea Temp 45°f
  • Air Temp 30°f
  • Sea Pressure 1009.7mb
  • Nantucket 54nm Southeast Of Nantucket
  • Nantucket 54nm Southeast Of Nantucket

More Historic Weather Station data

Upgrade to MSW Pro to gain access to the past 30 days of data for over 8000 Wavebouys and Weather Stations around the globe.

Join Pro

Comparision Forecast

View Surf forecast
   
Sat 02/13 12:50am 3.5ft 7s 6s 13 18 mph 1009.7mb 45f 30f
Fri 02/12 11:50pm 4ft 7s 6s 11 13 mph 1011.6mb 45f 30f
10:50pm 4.5ft 7s 6s 11 13 mph 1012.6mb 45f 28f
9:50pm 5ft 8s 6s 7 11 mph 1013.8mb 45f 28f
8:50pm 5ft 8s 6s 4 7 mph 1014.8mb 45f 28f
7:50pm 5ft 9s 6s 4 9 mph 1015.7mb 45f 28f
6:50pm 5.5ft 9s 6s 2 4 mph 1017.5mb 45f 28f
5:50pm 5.5ft 9s 6s 2 7 mph 1018.5mb 45f 28f
4:50pm 6.5ft 8s 6s 9 13 mph 1019mb 45f 28f
3:50pm 6ft 9s 6s 7 13 mph 1019.6mb 45f 27f
2:50pm 6ft 9s 6s 11 18 mph 1020.4mb 45f 26f
1:50pm 7ft 8s 6s 11 16 mph 1020.7mb 45f 25f
12:50pm 7.5ft 9s 6s 16 20 mph 1021.7mb 45f 24f
11:50am 8ft 8s 6s 16 22 mph 1022.2mb 45f 24f
10:50am 9ft 9s 7s 18 22 mph 1023mb 45f 24f
9:50am 10.5ft 10s 7s 20 27 mph 1023.2mb 45f 23f
8:50am 11ft 10s 7s 22 27 mph 1023mb 45f 23f
7:50am 11.5ft 10s 7s 25 34 mph 1022.3mb 45f 23f
6:50am 12ft 10s 7s 25 34 mph 1022.2mb 45f 22f
5:50am 12.5ft 10s 7s 29 36 mph 1020.8mb 45f 22f
4:50am 14ft 10s 7s 31 38 mph 1019.9mb 45f 23f
3:50am 13.5ft 11s 7s 36 43 mph 1018.2mb 46f 24f
2:50am 13ft 8s 7s 36 45 mph 1017.7mb 46f 24f
1:50am 13ft 10s 7s 34 43 mph 1017.2mb 46f 24f
12:50am 13.5ft 9s 7s 34 43 mph 1016.7mb 46f 24f
Thu 02/11 11:50pm 13.5ft 8s 7s 38 51 mph 1015.4mb 46f 25f
10:50pm 13.5ft 10s 7s 36 45 mph 1014.3mb 46f 26f
9:50pm 13.5ft 9s 7s 29 38 mph 1013.4mb 46f 27f
8:50pm 13ft 8s 7s 31 43 mph 1012.4mb 46f 27f
7:50pm 14.5ft 9s 8s 36 47 mph 1010.8mb 46f 29f
6:50pm 15.5ft 10s 8s 34 45 mph 1010.2mb 46f 29f
5:50pm 13ft 8s 7s 31 43 mph 1009.1mb 46f 29f
4:50pm 13ft 9s 7s 36 45 mph 1008.1mb 46f 29f
3:50pm 12.5ft 9s 7s 36 45 mph 1007.2mb 46f 30f
2:50pm 12ft 8s 7s 34 40 mph 1006.7mb 46f 31f
1:50pm 10.5ft 10s 7s 36 45 mph 1006mb 46f 32f
12:50pm 8.5ft 9s 6s 31 38 mph 1005.6mb 46f 32f
11:50am 8ft 8s 6s 29 36 mph 1005.9mb 46f 32f
10:50am 8.5ft 8s 7s 22 29 mph 1005.9mb 46f 32f
9:50am 9ft 12s 7s 16 20 mph 1005.7mb 46f 32f
8:50am 9ft 11s 7s 7 11 mph 1005.2mb 46f 37f
7:50am 9.5ft 8s 8s 13 16 mph 1004.8mb 46f 37f
6:50am 9.5ft 9s 7s 13 18 mph 1004.6mb 46f 37f
5:50am 10ft 11s 7s 16 20 mph 1004.8mb 46f 37f
4:50am 10ft 13s 7s 18 22 mph 1003.9mb 46f 38f
3:50am 10.5ft 12s 8s 20 25 mph 1003.3mb 46f 38f
2:50am 10ft 10s 7s 20 27 mph 1003.2mb 46f 39f
1:50am 10ft 9s 7s 22 29 mph 1003.2mb 46f 40f
12:50am 9.5ft 12s 7s 22 27 mph 1003.3mb 46f 41f
Wed 02/10 11:50pm 10ft 9s 7s 16 20 mph 1004.3mb 46f 40f
10:50pm 9ft 9s 7s 20 22 mph 1004.2mb 46f 40f
9:50pm 10ft 12s 8s 22 27 mph 1003.9mb 46f 40f
8:50pm 9ft 11s 8s 22 29 mph 1003.5mb 46f 40f
7:50pm 7.5ft 12s 8s 20 27 mph 1003.3mb 46f 40f
6:50pm 8ft 11s 8s 13 16 mph 1003.5mb 46f 38f
5:50pm 8ft 11s 8s 7 11 mph 1002.9mb 46f 38f
4:50pm 7.5ft 11s 8s 9 11 mph 1001.7mb 46f 37f
3:50pm 8ft 12s 8s 9 11 mph 1000.7mb 46f 37f
2:50pm 7ft 11s 8s 11 13 mph 999.6mb 46f 38f
1:50pm 8ft 11s 8s 13 16 mph 999.1mb 46f 37f
12:50pm 8ft 11s 9s 16 20 mph 999.5mb 46f 36f
11:50am 7ft 13s 8s 11 13 mph 1001mb 46f 35f
10:50am 7ft 12s 8s 16 20 mph 1000.6mb 46f 39f
9:50am 8.5ft 12s 9s 13 16 mph 1001.5mb 46f 40f
8:50am 8.5ft 12s 9s 11 16 mph 1002mb 46f 40f
7:50am 8.5ft 11s 8s 11 13 mph 1002.3mb 46f 39f
6:50am 9ft 13s 8s 7 11 mph 1002.3mb 46f 39f
5:50am 10ft 11s 9s 7 9 mph 1002.3mb 46f 39f
4:50am 8.5ft 13s 8s 7 9 mph 1001.9mb 46f 39f
3:50am 8.5ft 12s 8s 7 11 mph 1001.5mb 46f 38f
2:50am 8ft 13s 8s 7 9 mph 1001.9mb 46f 38f
1:50am 7.5ft 14s 8s 4 7 mph 1002.1mb 46f 38f
12:50am 7.5ft 14s 8s 7 13 mph 1001.5mb 46f 38f
Tue 02/09 11:50pm 7ft 14s 8s 13 16 mph 1002.2mb 46f 37f
10:50pm 9ft 14s 9s 4 9 mph 1002.3mb 46f 38f
9:50pm 8.5ft 14s 9s 13 16 mph 1001.5mb 46f 37f
8:50pm 9ft 13s 9s 13 18 mph 1001.6mb 46f 38f
7:50pm 9.5ft 14s 8s 13 18 mph 1000.9mb 46f 38f
6:50pm 10ft 13s 8s 16 20 mph 1000.6mb 46f 38f
5:50pm 10ft 12s 8s 16 22 mph 1000.1mb 46f 37f
4:50pm 10ft 13s 7s 20 25 mph 999.1mb 46f 37f
3:50pm 11ft 13s 8s 22 27 mph 997.8mb 46f 37f
2:50pm 10.5ft 13s 8s 22 29 mph 997.8mb 46f 36f
1:50pm 12ft 13s 8s 20 25 mph 997.5mb 46f 37f
12:50pm 12.5ft 14s 9s 20 25 mph 997.8mb 47f 37f
11:50am 11.5ft 14s 9s 20 25 mph 999.4mb 47f 38f
10:50am 13ft 14s 10s 16 20 mph 1001.2mb 47f 38f
9:50am 12.5ft 14s 9s 13 16 mph 1002.4mb 47f 37f
8:50am 13ft 14s 9s 13 18 mph 1003mb 47f 37f
7:50am 15ft 13s 10s 11 18 mph 1004.1mb 46f 37f